San Bernardino International Airport
KSBD : now visible

Airfield :











YOU CAN JOIN US ON...

 
LOGIN :

Register | Disclaimer

   EN    FR    IT 

 









Legend :    VFR   Marginal VFR   IFR   Intensive IFR   Very Intensive IFR
Visi :
Ceiling :
>= 8 km
>= 3000ft
5 to 8 km
1000 to 3000 ft
1500m to 5 km
500 to 1000 ft
800 to 1500m
200 to 500 ft
< 800m
< 200 ft
Symbols :   Thunderstorms  Fog  Heavy snow  Heavy precipitations  Wind > 20 kt






- Airport Elevation : 1159 ft


KSBD - San Bernardino International

CURRENT METAR :
  • 091000Z AUTO 00000KT 3SM HZ BKN010 OVC018 12/09 A2997 RMK AO2 T01200090

EXPIRED METARs :
  • 090940Z AUTO 00000KT 3SM HZ OVC010 12/09 A2998 RMK AO2 T01190088
  • 090920Z AUTO 00000KT 3SM HZ BKN012 OVC023 12/09 A2998 RMK AO2 T01200090
  • 090900Z AUTO 00000KT 3SM HZ OVC012 12/09 A2999 RMK AO2 T01200088
  • 090840Z AUTO 00000KT 4SM HZ OVC008 12/09 A2999 RMK AO2 T01200087
  • 090820Z AUTO 23003KT 5SM HZ OVC010 12/09 A2999 RMK AO2 T01210086
  • 090800Z AUTO 00000KT 7SM BKN010 BKN013 OVC028 12/09 A3000 RMK AO2 T01220085
  • 090740Z AUTO 24003KT 7SM SCT013 OVC028 12/08 A3000 RMK AO2 T01210078
  • 090720Z AUTO 00000KT 7SM OVC028 12/07 A3000 RMK AO2 T01170071

TAF KSBD
Valid from the 09 at 08:00 until the 10 at 06:00 UTC


090759Z 0908/1006 24003KT P6SM SCT013 OVC028
FM091200 VRB04KT 5SM BR VCSH OVC015
FM091800 21006KT 3SM -RA BR OVC010
FM100300 25004KT P6SM VCSH BKN015
KZLA FIR / North America



MET'MAP, your aeronautical weather chart ! - Copyright ORBIFLY December 2007 - Disclaimer

ORBIFLY MET'MAP TEAM :

Programming & Development : Alexandra Zaïnal
Concept & original design : Baudouin d'Aumeries
Assistance for programming : Marc-Olivier Méhu
Technical & hardware support : Manuel Goepfert

Contact : metmap@orbifly.com




SOURCES & CREDITS :

   NOAA       Earth
Advisory